sensor_id;sensor_type;location;lat;lon;timestamp;P1;durP1;ratioP1;P2;durP2;ratioP2
42840;SDS011;28491;46.898;7.660;2022-11-14T00:00:50;85.03;;;8.07;;
42840;SDS011;28491;46.898;7.660;2022-11-14T00:03:16;41.50;;;6.22;;
42840;SDS011;28491;46.898;7.660;2022-11-14T00:05:42;77.05;;;7.90;;
42840;SDS011;28491;46.898;7.660;2022-11-14T00:08:19;73.70;;;8.15;;
42840;SDS011;28491;46.898;7.660;2022-11-14T00:10:51;41.83;;;6.78;;
42840;SDS011;28491;46.898;7.660;2022-11-14T00:13:17;42.53;;;6.68;;
42840;SDS011;28491;46.898;7.660;2022-11-14T00:15:44;26.27;;;5.22;;
42840;SDS011;28491;46.898;7.660;2022-11-14T00:18:14;60.92;;;6.80;;
42840;SDS011;28491;46.898;7.660;2022-11-14T00:20:40;58.47;;;7.75;;
42840;SDS011;28491;46.898;7.660;2022-11-14T00:23:05;78.13;;;8.98;;
42840;SDS011;28491;46.898;7.660;2022-11-14T00:25:31;39.92;;;6.38;;
42840;SDS011;28491;46.898;7.660;2022-11-14T00:27:57;39.10;;;5.78;;
42840;SDS011;28491;46.898;7.660;2022-11-14T00:30:23;20.73;;;4.93;;
42840;SDS011;28491;46.898;7.660;2022-11-14T00:32:49;13.32;;;5.47;;
42840;SDS011;28491;46.898;7.660;2022-11-14T00:35:15;16.27;;;4.50;;
42840;SDS011;28491;46.898;7.660;2022-11-14T00:37:40;18.05;;;4.75;;
42840;SDS011;28491;46.898;7.660;2022-11-14T00:40:06;9.27;;;4.25;;
42840;SDS011;28491;46.898;7.660;2022-11-14T00:42:32;14.15;;;4.45;;
42840;SDS011;28491;46.898;7.660;2022-11-14T00:44:58;8.80;;;4.30;;
42840;SDS011;28491;46.898;7.660;2022-11-14T00:47:24;10.70;;;4.25;;
42840;SDS011;28491;46.898;7.660;2022-11-14T00:49:49;5.70;;;4.35;;
42840;SDS011;28491;46.898;7.660;2022-11-14T00:52:15;9.85;;;4.55;;
42840;SDS011;28491;46.898;7.660;2022-11-14T00:54:40;10.38;;;4.18;;
42840;SDS011;28491;46.898;7.660;2022-11-14T00:57:06;5.05;;;3.45;;
42840;SDS011;28491;46.898;7.660;2022-11-14T00:59:31;4.63;;;3.33;;
42840;SDS011;28491;46.898;7.660;2022-11-14T01:01:57;5.05;;;4.18;;
42840;SDS011;28491;46.898;7.660;2022-11-14T01:04:22;4.85;;;3.58;;
42840;SDS011;28491;46.898;7.660;2022-11-14T01:06:48;4.47;;;3.50;;
42840;SDS011;28491;46.898;7.660;2022-11-14T01:09:13;6.00;;;4.15;;
42840;SDS011;28491;46.898;7.660;2022-11-14T01:11:40;6.25;;;2.88;;
42840;SDS011;28491;46.898;7.660;2022-11-14T01:14:06;4.32;;;3.05;;
42840;SDS011;28491;46.898;7.660;2022-11-14T01:16:32;4.22;;;3.08;;
42840;SDS011;28491;46.898;7.660;2022-11-14T01:18:59;6.15;;;3.30;;
42840;SDS011;28491;46.898;7.660;2022-11-14T01:21:25;4.15;;;3.45;;
42840;SDS011;28491;46.898;7.660;2022-11-14T01:23:51;4.15;;;3.17;;
42840;SDS011;28491;46.898;7.660;2022-11-14T01:26:17;4.38;;;3.28;;
42840;SDS011;28491;46.898;7.660;2022-11-14T01:28:42;13.43;;;4.22;;
42840;SDS011;28491;46.898;7.660;2022-11-14T01:31:15;8.57;;;3.85;;
42840;SDS011;28491;46.898;7.660;2022-11-14T01:33:49;13.77;;;4.38;;
42840;SDS011;28491;46.898;7.660;2022-11-14T01:36:16;8.60;;;3.97;;
42840;SDS011;28491;46.898;7.660;2022-11-14T01:38:42;5.55;;;3.88;;
42840;SDS011;28491;46.898;7.660;2022-11-14T01:41:08;4.43;;;3.20;;
42840;SDS011;28491;46.898;7.660;2022-11-14T01:43:40;4.07;;;3.20;;
42840;SDS011;28491;46.898;7.660;2022-11-14T01:49:02;5.47;;;4.10;;
42840;SDS011;28491;46.898;7.660;2022-11-14T01:52:01;4.65;;;3.40;;
42840;SDS011;28491;46.898;7.660;2022-11-14T01:54:35;4.15;;;3.58;;
42840;SDS011;28491;46.898;7.660;2022-11-14T01:57:02;6.18;;;4.28;;
42840;SDS011;28491;46.898;7.660;2022-11-14T01:59:32;4.28;;;3.22;;
42840;SDS011;28491;46.898;7.660;2022-11-14T02:02:04;4.57;;;3.45;;
42840;SDS011;28491;46.898;7.660;2022-11-14T02:04:37;3.95;;;3.28;;
42840;SDS011;28491;46.898;7.660;2022-11-14T02:07:11;4.07;;;3.63;;
42840;SDS011;28491;46.898;7.660;2022-11-14T02:09:38;4.38;;;3.22;;
42840;SDS011;28491;46.898;7.660;2022-11-14T02:12:07;3.97;;;3.33;;
42840;SDS011;28491;46.898;7.660;2022-11-14T02:17:01;3.88;;;2.80;;
42840;SDS011;28491;46.898;7.660;2022-11-14T02:19:44;4.65;;;3.20;;
42840;SDS011;28491;46.898;7.660;2022-11-14T02:22:12;3.40;;;3.08;;
42840;SDS011;28491;46.898;7.660;2022-11-14T02:24:38;4.43;;;2.92;;
42840;SDS011;28491;46.898;7.660;2022-11-14T02:27:04;4.15;;;3.17;;
42840;SDS011;28491;46.898;7.660;2022-11-14T02:29:31;3.80;;;2.90;;
42840;SDS011;28491;46.898;7.660;2022-11-14T02:31:57;3.55;;;3.20;;
42840;SDS011;28491;46.898;7.660;2022-11-14T02:34:23;4.53;;;3.13;;
42840;SDS011;28491;46.898;7.660;2022-11-14T02:36:48;4.50;;;2.80;;
42840;SDS011;28491;46.898;7.660;2022-11-14T02:39:14;3.63;;;2.92;;
42840;SDS011;28491;46.898;7.660;2022-11-14T02:41:39;4.05;;;3.05;;
42840;SDS011;28491;46.898;7.660;2022-11-14T02:44:05;4.05;;;3.33;;
42840;SDS011;28491;46.898;7.660;2022-11-14T02:46:30;4.40;;;3.50;;
42840;SDS011;28491;46.898;7.660;2022-11-14T02:48:56;4.68;;;3.05;;
42840;SDS011;28491;46.898;7.660;2022-11-14T02:51:21;3.70;;;3.00;;
42840;SDS011;28491;46.898;7.660;2022-11-14T02:53:47;4.03;;;3.50;;
42840;SDS011;28491;46.898;7.660;2022-11-14T02:56:13;5.35;;;3.75;;
42840;SDS011;28491;46.898;7.660;2022-11-14T02:58:38;3.53;;;2.92;;
42840;SDS011;28491;46.898;7.660;2022-11-14T03:01:04;3.17;;;2.58;;
42840;SDS011;28491;46.898;7.660;2022-11-14T03:03:29;4.80;;;3.53;;
42840;SDS011;28491;46.898;7.660;2022-11-14T03:05:58;4.40;;;2.95;;
42840;SDS011;28491;46.898;7.660;2022-11-14T03:08:28;3.63;;;2.95;;
42840;SDS011;28491;46.898;7.660;2022-11-14T03:10:53;3.67;;;2.92;;
42840;SDS011;28491;46.898;7.660;2022-11-14T03:13:19;3.40;;;2.83;;
42840;SDS011;28491;46.898;7.660;2022-11-14T03:15:45;3.90;;;2.80;;
42840;SDS011;28491;46.898;7.660;2022-11-14T03:18:11;5.82;;;2.88;;
42840;SDS011;28491;46.898;7.660;2022-11-14T03:20:36;4.93;;;2.80;;
42840;SDS011;28491;46.898;7.660;2022-11-14T03:23:02;3.53;;;3.10;;
42840;SDS011;28491;46.898;7.660;2022-11-14T03:25:28;4.38;;;3.05;;
42840;SDS011;28491;46.898;7.660;2022-11-14T03:27:53;4.35;;;3.13;;
42840;SDS011;28491;46.898;7.660;2022-11-14T03:30:19;5.93;;;3.17;;
42840;SDS011;28491;46.898;7.660;2022-11-14T03:32:44;5.95;;;3.47;;
42840;SDS011;28491;46.898;7.660;2022-11-14T03:35:10;7.00;;;3.60;;
42840;SDS011;28491;46.898;7.660;2022-11-14T03:37:36;4.00;;;3.40;;
42840;SDS011;28491;46.898;7.660;2022-11-14T03:40:02;5.00;;;3.20;;
42840;SDS011;28491;46.898;7.660;2022-11-14T03:42:28;4.50;;;3.33;;
42840;SDS011;28491;46.898;7.660;2022-11-14T03:44:56;5.38;;;3.97;;
42840;SDS011;28491;46.898;7.660;2022-11-14T03:47:22;4.88;;;3.67;;
42840;SDS011;28491;46.898;7.660;2022-11-14T03:49:48;4.00;;;3.03;;
42840;SDS011;28491;46.898;7.660;2022-11-14T03:52:13;4.40;;;3.60;;
42840;SDS011;28491;46.898;7.660;2022-11-14T03:54:39;4.55;;;3.28;;
42840;SDS011;28491;46.898;7.660;2022-11-14T03:57:04;4.72;;;3.65;;
42840;SDS011;28491;46.898;7.660;2022-11-14T03:59:30;4.70;;;3.30;;
42840;SDS011;28491;46.898;7.660;2022-11-14T04:01:55;4.65;;;3.55;;
42840;SDS011;28491;46.898;7.660;2022-11-14T04:04:21;3.75;;;2.70;;
42840;SDS011;28491;46.898;7.660;2022-11-14T04:06:46;4.65;;;3.42;;
42840;SDS011;28491;46.898;7.660;2022-11-14T04:09:12;3.50;;;3.00;;
42840;SDS011;28491;46.898;7.660;2022-11-14T04:11:37;4.32;;;3.40;;
42840;SDS011;28491;46.898;7.660;2022-11-14T04:14:03;6.13;;;3.33;;
42840;SDS011;28491;46.898;7.660;2022-11-14T04:16:28;5.18;;;4.60;;
42840;SDS011;28491;46.898;7.660;2022-11-14T04:18:54;4.22;;;2.97;;
42840;SDS011;28491;46.898;7.660;2022-11-14T04:21:19;3.70;;;3.10;;
42840;SDS011;28491;46.898;7.660;2022-11-14T04:23:45;5.97;;;3.10;;
42840;SDS011;28491;46.898;7.660;2022-11-14T04:26:10;4.57;;;3.45;;
42840;SDS011;28491;46.898;7.660;2022-11-14T04:28:36;4.50;;;3.88;;
42840;SDS011;28491;46.898;7.660;2022-11-14T04:31:01;4.78;;;3.70;;
42840;SDS011;28491;46.898;7.660;2022-11-14T04:33:27;4.15;;;3.33;;
42840;SDS011;28491;46.898;7.660;2022-11-14T04:35:52;4.70;;;2.95;;
42840;SDS011;28491;46.898;7.660;2022-11-14T04:38:18;4.72;;;2.97;;
42840;SDS011;28491;46.898;7.660;2022-11-14T04:40:50;4.03;;;2.90;;
42840;SDS011;28491;46.898;7.660;2022-11-14T04:43:16;4.47;;;3.20;;
42840;SDS011;28491;46.898;7.660;2022-11-14T04:45:42;5.20;;;3.55;;
42840;SDS011;28491;46.898;7.660;2022-11-14T04:48:08;3.80;;;2.85;;
42840;SDS011;28491;46.898;7.660;2022-11-14T04:50:34;4.25;;;3.03;;
42840;SDS011;28491;46.898;7.660;2022-11-14T04:52:59;3.47;;;2.55;;
42840;SDS011;28491;46.898;7.660;2022-11-14T04:55:25;3.88;;;3.08;;
42840;SDS011;28491;46.898;7.660;2022-11-14T04:57:54;4.25;;;3.53;;
42840;SDS011;28491;46.898;7.660;2022-11-14T05:00:21;19.63;;;13.13;;
42840;SDS011;28491;46.898;7.660;2022-11-14T05:02:47;8.32;;;4.38;;
42840;SDS011;28491;46.898;7.660;2022-11-14T05:05:13;7.50;;;3.22;;
42840;SDS011;28491;46.898;7.660;2022-11-14T05:07:38;4.60;;;3.20;;
42840;SDS011;28491;46.898;7.660;2022-11-14T05:10:04;3.78;;;3.20;;
42840;SDS011;28491;46.898;7.660;2022-11-14T05:12:30;5.20;;;3.13;;
42840;SDS011;28491;46.898;7.660;2022-11-14T05:14:56;4.53;;;3.17;;
42840;SDS011;28491;46.898;7.660;2022-11-14T05:17:21;7.85;;;3.15;;
42840;SDS011;28491;46.898;7.660;2022-11-14T05:19:47;4.45;;;3.00;;
42840;SDS011;28491;46.898;7.660;2022-11-14T05:22:12;4.60;;;3.28;;
42840;SDS011;28491;46.898;7.660;2022-11-14T05:24:38;3.97;;;3.28;;
42840;SDS011;28491;46.898;7.660;2022-11-14T05:27:03;5.63;;;3.90;;
42840;SDS011;28491;46.898;7.660;2022-11-14T05:29:29;4.68;;;3.75;;
42840;SDS011;28491;46.898;7.660;2022-11-14T05:31:55;5.57;;;4.00;;
42840;SDS011;28491;46.898;7.660;2022-11-14T05:34:21;5.63;;;3.72;;
42840;SDS011;28491;46.898;7.660;2022-11-14T05:36:47;5.53;;;3.80;;
42840;SDS011;28491;46.898;7.660;2022-11-14T05:39:13;7.50;;;5.07;;
42840;SDS011;28491;46.898;7.660;2022-11-14T05:41:39;8.10;;;4.53;;
42840;SDS011;28491;46.898;7.660;2022-11-14T05:44:04;5.30;;;4.40;;
42840;SDS011;28491;46.898;7.660;2022-11-14T05:46:30;4.38;;;3.70;;
42840;SDS011;28491;46.898;7.660;2022-11-14T05:48:55;6.38;;;4.05;;
42840;SDS011;28491;46.898;7.660;2022-11-14T05:51:21;6.32;;;4.22;;
42840;SDS011;28491;46.898;7.660;2022-11-14T05:53:46;5.82;;;3.95;;
42840;SDS011;28491;46.898;7.660;2022-11-14T05:56:12;5.32;;;3.97;;
42840;SDS011;28491;46.898;7.660;2022-11-14T05:58:38;6.32;;;3.45;;
42840;SDS011;28491;46.898;7.660;2022-11-14T06:01:13;6.20;;;3.78;;
42840;SDS011;28491;46.898;7.660;2022-11-14T06:03:45;5.78;;;4.18;;
42840;SDS011;28491;46.898;7.660;2022-11-14T06:06:13;12.77;;;5.68;;
42840;SDS011;28491;46.898;7.660;2022-11-14T06:08:41;10.93;;;6.90;;
42840;SDS011;28491;46.898;7.660;2022-11-14T06:11:14;11.45;;;7.80;;
42840;SDS011;28491;46.898;7.660;2022-11-14T06:13:41;10.02;;;6.82;;
42840;SDS011;28491;46.898;7.660;2022-11-14T06:16:11;9.15;;;6.95;;
42840;SDS011;28491;46.898;7.660;2022-11-14T06:18:38;9.07;;;5.00;;
42840;SDS011;28491;46.898;7.660;2022-11-14T06:21:09;13.20;;;8.65;;
42840;SDS011;28491;46.898;7.660;2022-11-14T06:23:36;12.32;;;8.15;;
42840;SDS011;28491;46.898;7.660;2022-11-14T06:26:03;8.15;;;6.18;;
42840;SDS011;28491;46.898;7.660;2022-11-14T06:28:36;7.65;;;5.55;;
42840;SDS011;28491;46.898;7.660;2022-11-14T06:31:02;8.68;;;6.70;;
42840;SDS011;28491;46.898;7.660;2022-11-14T06:33:31;8.23;;;6.25;;
42840;SDS011;28491;46.898;7.660;2022-11-14T06:35:59;8.00;;;6.25;;
42840;SDS011;28491;46.898;7.660;2022-11-14T06:38:25;11.82;;;9.38;;
42840;SDS011;28491;46.898;7.660;2022-11-14T06:40:52;12.90;;;6.72;;
42840;SDS011;28491;46.898;7.660;2022-11-14T06:43:33;8.88;;;6.63;;
42840;SDS011;28491;46.898;7.660;2022-11-14T06:46:00;9.13;;;6.40;;
42840;SDS011;28491;46.898;7.660;2022-11-14T06:48:26;9.23;;;6.78;;
42840;SDS011;28491;46.898;7.660;2022-11-14T06:50:53;8.70;;;7.25;;
42840;SDS011;28491;46.898;7.660;2022-11-14T06:53:19;10.27;;;6.85;;
42840;SDS011;28491;46.898;7.660;2022-11-14T06:55:54;10.98;;;7.90;;
42840;SDS011;28491;46.898;7.660;2022-11-14T06:58:27;11.93;;;8.40;;
42840;SDS011;28491;46.898;7.660;2022-11-14T07:00:54;12.00;;;8.63;;
42840;SDS011;28491;46.898;7.660;2022-11-14T07:03:20;11.70;;;8.93;;
42840;SDS011;28491;46.898;7.660;2022-11-14T07:05:46;13.60;;;8.90;;
42840;SDS011;28491;46.898;7.660;2022-11-14T07:08:12;11.93;;;8.50;;
42840;SDS011;28491;46.898;7.660;2022-11-14T07:10:38;12.60;;;8.95;;
42840;SDS011;28491;46.898;7.660;2022-11-14T07:13:04;15.73;;;9.63;;
42840;SDS011;28491;46.898;7.660;2022-11-14T07:15:29;14.80;;;9.60;;
42840;SDS011;28491;46.898;7.660;2022-11-14T07:17:55;12.52;;;9.15;;
42840;SDS011;28491;46.898;7.660;2022-11-14T07:20:22;12.55;;;9.15;;
42840;SDS011;28491;46.898;7.660;2022-11-14T07:22:47;13.60;;;10.43;;
42840;SDS011;28491;46.898;7.660;2022-11-14T07:25:13;12.55;;;9.10;;
42840;SDS011;28491;46.898;7.660;2022-11-14T07:27:38;11.80;;;8.32;;
42840;SDS011;28491;46.898;7.660;2022-11-14T07:30:04;20.33;;;7.90;;
42840;SDS011;28491;46.898;7.660;2022-11-14T07:32:30;14.05;;;8.85;;
42840;SDS011;28491;46.898;7.660;2022-11-14T07:34:56;14.07;;;8.20;;
42840;SDS011;28491;46.898;7.660;2022-11-14T07:37:21;11.80;;;8.00;;
42840;SDS011;28491;46.898;7.660;2022-11-14T07:39:47;10.40;;;8.50;;
42840;SDS011;28491;46.898;7.660;2022-11-14T07:42:12;13.32;;;8.73;;
42840;SDS011;28491;46.898;7.660;2022-11-14T07:44:38;12.00;;;8.77;;
42840;SDS011;28491;46.898;7.660;2022-11-14T07:47:03;20.67;;;13.30;;
42840;SDS011;28491;46.898;7.660;2022-11-14T07:49:29;23.27;;;15.27;;
42840;SDS011;28491;46.898;7.660;2022-11-14T07:51:54;32.97;;;20.27;;
42840;SDS011;28491;46.898;7.660;2022-11-14T07:54:20;31.27;;;20.70;;
42840;SDS011;28491;46.898;7.660;2022-11-14T07:56:46;17.67;;;12.35;;
42840;SDS011;28491;46.898;7.660;2022-11-14T07:59:11;27.85;;;16.35;;
42840;SDS011;28491;46.898;7.660;2022-11-14T08:01:37;27.48;;;18.08;;
42840;SDS011;28491;46.898;7.660;2022-11-14T08:04:02;29.70;;;17.85;;
42840;SDS011;28491;46.898;7.660;2022-11-14T08:06:28;41.60;;;25.45;;
42840;SDS011;28491;46.898;7.660;2022-11-14T08:08:54;56.63;;;32.05;;
42840;SDS011;28491;46.898;7.660;2022-11-14T08:11:19;65.30;;;36.85;;
42840;SDS011;28491;46.898;7.660;2022-11-14T08:14:05;53.67;;;31.00;;
42840;SDS011;28491;46.898;7.660;2022-11-14T08:16:30;34.47;;;22.15;;
42840;SDS011;28491;46.898;7.660;2022-11-14T08:18:56;19.48;;;13.32;;
42840;SDS011;28491;46.898;7.660;2022-11-14T08:21:22;32.47;;;18.77;;
42840;SDS011;28491;46.898;7.660;2022-11-14T08:23:47;40.60;;;23.58;;
42840;SDS011;28491;46.898;7.660;2022-11-14T08:26:13;29.50;;;19.13;;
42840;SDS011;28491;46.898;7.660;2022-11-14T08:28:38;33.55;;;18.83;;
42840;SDS011;28491;46.898;7.660;2022-11-14T08:31:04;24.52;;;16.10;;
42840;SDS011;28491;46.898;7.660;2022-11-14T08:33:29;28.48;;;15.98;;
42840;SDS011;28491;46.898;7.660;2022-11-14T08:35:59;22.23;;;14.02;;
42840;SDS011;28491;46.898;7.660;2022-11-14T08:38:25;21.27;;;13.15;;
42840;SDS011;28491;46.898;7.660;2022-11-14T08:40:50;21.35;;;12.43;;
42840;SDS011;28491;46.898;7.660;2022-11-14T08:43:16;21.10;;;12.20;;
42840;SDS011;28491;46.898;7.660;2022-11-14T08:45:41;20.05;;;12.80;;
42840;SDS011;28491;46.898;7.660;2022-11-14T08:48:07;26.30;;;15.45;;
42840;SDS011;28491;46.898;7.660;2022-11-14T08:50:33;24.20;;;15.02;;
42840;SDS011;28491;46.898;7.660;2022-11-14T08:52:58;22.60;;;14.32;;
42840;SDS011;28491;46.898;7.660;2022-11-14T08:55:24;18.50;;;12.27;;
42840;SDS011;28491;46.898;7.660;2022-11-14T08:57:49;22.02;;;12.30;;
42840;SDS011;28491;46.898;7.660;2022-11-14T09:00:17;14.13;;;10.85;;
42840;SDS011;28491;46.898;7.660;2022-11-14T09:02:43;19.17;;;12.10;;
42840;SDS011;28491;46.898;7.660;2022-11-14T09:05:08;16.90;;;12.15;;
42840;SDS011;28491;46.898;7.660;2022-11-14T09:07:34;16.13;;;11.20;;
42840;SDS011;28491;46.898;7.660;2022-11-14T09:09:59;17.70;;;10.15;;
42840;SDS011;28491;46.898;7.660;2022-11-14T09:12:25;21.27;;;13.65;;
42840;SDS011;28491;46.898;7.660;2022-11-14T09:14:50;23.73;;;13.02;;
42840;SDS011;28491;46.898;7.660;2022-11-14T09:17:16;19.08;;;12.02;;
42840;SDS011;28491;46.898;7.660;2022-11-14T09:19:41;20.27;;;12.05;;
42840;SDS011;28491;46.898;7.660;2022-11-14T09:22:07;20.20;;;11.77;;
42840;SDS011;28491;46.898;7.660;2022-11-14T09:24:32;18.05;;;11.75;;
42840;SDS011;28491;46.898;7.660;2022-11-14T09:26:58;17.38;;;10.98;;
42840;SDS011;28491;46.898;7.660;2022-11-14T09:29:23;13.63;;;9.02;;
42840;SDS011;28491;46.898;7.660;2022-11-14T09:31:50;13.23;;;9.15;;
42840;SDS011;28491;46.898;7.660;2022-11-14T09:34:16;16.98;;;9.10;;
42840;SDS011;28491;46.898;7.660;2022-11-14T09:36:41;9.23;;;6.68;;
42840;SDS011;28491;46.898;7.660;2022-11-14T09:39:07;11.27;;;6.88;;
42840;SDS011;28491;46.898;7.660;2022-11-14T09:47:09;8.38;;;5.75;;
42840;SDS011;28491;46.898;7.660;2022-11-14T09:49:38;9.68;;;7.65;;
42840;SDS011;28491;46.898;7.660;2022-11-14T09:54:57;11.90;;;9.00;;
42840;SDS011;28491;46.898;7.660;2022-11-14T09:57:26;11.48;;;8.27;;
42840;SDS011;28491;46.898;7.660;2022-11-14T09:59:53;10.68;;;8.85;;
42840;SDS011;28491;46.898;7.660;2022-11-14T10:16:10;13.30;;;10.48;;
42840;SDS011;28491;46.898;7.660;2022-11-14T10:21:48;12.75;;;9.27;;
42840;SDS011;28491;46.898;7.660;2022-11-14T10:24:39;13.43;;;8.40;;
42840;SDS011;28491;46.898;7.660;2022-11-14T10:27:19;11.65;;;7.50;;
42840;SDS011;28491;46.898;7.660;2022-11-14T10:37:49;13.20;;;7.55;;
42840;SDS011;28491;46.898;7.660;2022-11-14T10:40:18;14.48;;;11.00;;
42840;SDS011;28491;46.898;7.660;2022-11-14T10:42:51;16.17;;;10.45;;
42840;SDS011;28491;46.898;7.660;2022-11-14T10:45:26;13.38;;;11.32;;
42840;SDS011;28491;46.898;7.660;2022-11-14T10:48:02;9.00;;;7.85;;
42840;SDS011;28491;46.898;7.660;2022-11-14T10:50:40;9.48;;;7.47;;
42840;SDS011;28491;46.898;7.660;2022-11-14T10:53:42;12.43;;;9.07;;
42840;SDS011;28491;46.898;7.660;2022-11-14T10:56:09;9.93;;;6.43;;
42840;SDS011;28491;46.898;7.660;2022-11-14T10:58:36;8.25;;;6.78;;
42840;SDS011;28491;46.898;7.660;2022-11-14T11:04:30;7.82;;;6.28;;
42840;SDS011;28491;46.898;7.660;2022-11-14T11:09:32;8.82;;;7.07;;
42840;SDS011;28491;46.898;7.660;2022-11-14T11:12:22;10.57;;;6.70;;
42840;SDS011;28491;46.898;7.660;2022-11-14T11:15:20;10.30;;;7.43;;
42840;SDS011;28491;46.898;7.660;2022-11-14T11:20:29;12.45;;;9.02;;
42840;SDS011;28491;46.898;7.660;2022-11-14T11:25:28;17.53;;;11.07;;
42840;SDS011;28491;46.898;7.660;2022-11-14T11:30:55;14.55;;;9.35;;
42840;SDS011;28491;46.898;7.660;2022-11-14T11:33:33;16.35;;;9.45;;
42840;SDS011;28491;46.898;7.660;2022-11-14T11:36:04;15.67;;;8.50;;
42840;SDS011;28491;46.898;7.660;2022-11-14T11:38:42;10.77;;;8.45;;
42840;SDS011;28491;46.898;7.660;2022-11-14T11:41:26;10.93;;;7.45;;
42840;SDS011;28491;46.898;7.660;2022-11-14T11:44:00;10.70;;;6.25;;
42840;SDS011;28491;46.898;7.660;2022-11-14T11:46:43;12.25;;;8.38;;
42840;SDS011;28491;46.898;7.660;2022-11-14T11:49:39;10.63;;;7.63;;
42840;SDS011;28491;46.898;7.660;2022-11-14T11:52:16;18.33;;;9.95;;
42840;SDS011;28491;46.898;7.660;2022-11-14T11:57:22;8.27;;;6.90;;
42840;SDS011;28491;46.898;7.660;2022-11-14T11:59:55;11.02;;;7.72;;
42840;SDS011;28491;46.898;7.660;2022-11-14T12:02:29;10.13;;;7.43;;
42840;SDS011;28491;46.898;7.660;2022-11-14T12:04:55;11.70;;;8.15;;
42840;SDS011;28491;46.898;7.660;2022-11-14T12:07:30;14.60;;;9.48;;
42840;SDS011;28491;46.898;7.660;2022-11-14T12:10:02;10.80;;;7.50;;
42840;SDS011;28491;46.898;7.660;2022-11-14T12:15:36;9.77;;;7.18;;
42840;SDS011;28491;46.898;7.660;2022-11-14T12:21:00;12.23;;;8.38;;
42840;SDS011;28491;46.898;7.660;2022-11-14T12:29:39;11.02;;;7.30;;
42840;SDS011;28491;46.898;7.660;2022-11-14T12:34:38;9.13;;;6.93;;
42840;SDS011;28491;46.898;7.660;2022-11-14T12:39:53;10.52;;;7.30;;
42840;SDS011;28491;46.898;7.660;2022-11-14T12:42:22;12.32;;;6.78;;
42840;SDS011;28491;46.898;7.660;2022-11-14T12:44:48;11.07;;;6.47;;
42840;SDS011;28491;46.898;7.660;2022-11-14T12:47:15;13.30;;;7.30;;
42840;SDS011;28491;46.898;7.660;2022-11-14T12:55:18;11.07;;;7.75;;
42840;SDS011;28491;46.898;7.660;2022-11-14T13:00:34;13.30;;;8.23;;
42840;SDS011;28491;46.898;7.660;2022-11-14T13:06:09;12.25;;;8.02;;
42840;SDS011;28491;46.898;7.660;2022-11-14T13:08:46;13.38;;;9.38;;
42840;SDS011;28491;46.898;7.660;2022-11-14T13:11:32;9.88;;;7.70;;
42840;SDS011;28491;46.898;7.660;2022-11-14T13:14:19;10.95;;;7.45;;
42840;SDS011;28491;46.898;7.660;2022-11-14T13:20:00;11.95;;;7.80;;
42840;SDS011;28491;46.898;7.660;2022-11-14T13:23:31;8.73;;;6.60;;
42840;SDS011;28491;46.898;7.660;2022-11-14T13:31:15;14.15;;;7.55;;
42840;SDS011;28491;46.898;7.660;2022-11-14T13:37:01;9.85;;;6.32;;
42840;SDS011;28491;46.898;7.660;2022-11-14T13:52:27;12.00;;;8.95;;
42840;SDS011;28491;46.898;7.660;2022-11-14T13:54:58;11.27;;;8.98;;
42840;SDS011;28491;46.898;7.660;2022-11-14T13:57:36;11.90;;;7.85;;
42840;SDS011;28491;46.898;7.660;2022-11-14T14:00:23;6.80;;;5.13;;
42840;SDS011;28491;46.898;7.660;2022-11-14T14:02:52;7.60;;;5.38;;
42840;SDS011;28491;46.898;7.660;2022-11-14T14:10:44;7.00;;;5.68;;
42840;SDS011;28491;46.898;7.660;2022-11-14T14:16:17;7.75;;;6.32;;
42840;SDS011;28491;46.898;7.660;2022-11-14T14:18:59;7.22;;;6.10;;
42840;SDS011;28491;46.898;7.660;2022-11-14T14:24:34;10.35;;;7.55;;
42840;SDS011;28491;46.898;7.660;2022-11-14T14:27:15;8.57;;;6.25;;
42840;SDS011;28491;46.898;7.660;2022-11-14T14:32:28;11.27;;;5.40;;
42840;SDS011;28491;46.898;7.660;2022-11-14T14:34:53;7.18;;;5.25;;
42840;SDS011;28491;46.898;7.660;2022-11-14T14:37:23;12.65;;;6.15;;
42840;SDS011;28491;46.898;7.660;2022-11-14T14:40:06;6.22;;;4.88;;
42840;SDS011;28491;46.898;7.660;2022-11-14T14:42:46;10.20;;;5.32;;
42840;SDS011;28491;46.898;7.660;2022-11-14T14:45:14;8.18;;;5.95;;
42840;SDS011;28491;46.898;7.660;2022-11-14T14:47:42;8.45;;;5.10;;
42840;SDS011;28491;46.898;7.660;2022-11-14T14:50:18;9.23;;;6.28;;
42840;SDS011;28491;46.898;7.660;2022-11-14T14:52:53;7.72;;;6.00;;
42840;SDS011;28491;46.898;7.660;2022-11-14T14:55:25;10.15;;;7.07;;
42840;SDS011;28491;46.898;7.660;2022-11-14T14:57:52;8.93;;;5.85;;
42840;SDS011;28491;46.898;7.660;2022-11-14T15:00:22;8.70;;;5.72;;
42840;SDS011;28491;46.898;7.660;2022-11-14T15:02:53;8.65;;;5.88;;
42840;SDS011;28491;46.898;7.660;2022-11-14T15:05:20;10.07;;;5.85;;
42840;SDS011;28491;46.898;7.660;2022-11-14T15:07:50;8.20;;;5.70;;
42840;SDS011;28491;46.898;7.660;2022-11-14T15:10:24;8.10;;;5.60;;
42840;SDS011;28491;46.898;7.660;2022-11-14T15:12:53;7.22;;;5.25;;
42840;SDS011;28491;46.898;7.660;2022-11-14T15:15:20;7.03;;;5.47;;
42840;SDS011;28491;46.898;7.660;2022-11-14T15:17:49;8.77;;;6.55;;
42840;SDS011;28491;46.898;7.660;2022-11-14T15:20:34;11.55;;;6.85;;
42840;SDS011;28491;46.898;7.660;2022-11-14T15:23:01;9.63;;;7.13;;
42840;SDS011;28491;46.898;7.660;2022-11-14T15:25:38;10.43;;;7.20;;
42840;SDS011;28491;46.898;7.660;2022-11-14T15:28:11;9.95;;;6.25;;
42840;SDS011;28491;46.898;7.660;2022-11-14T15:30:41;11.20;;;6.05;;
42840;SDS011;28491;46.898;7.660;2022-11-14T15:33:27;9.77;;;5.95;;
42840;SDS011;28491;46.898;7.660;2022-11-14T15:36:07;7.50;;;5.68;;
42840;SDS011;28491;46.898;7.660;2022-11-14T15:38:40;10.70;;;6.60;;
42840;SDS011;28491;46.898;7.660;2022-11-14T15:41:26;12.23;;;6.70;;
42840;SDS011;28491;46.898;7.660;2022-11-14T15:43:53;7.88;;;5.07;;
42840;SDS011;28491;46.898;7.660;2022-11-14T15:46:26;9.18;;;5.88;;
42840;SDS011;28491;46.898;7.660;2022-11-14T15:48:53;9.68;;;5.85;;
42840;SDS011;28491;46.898;7.660;2022-11-14T15:51:36;9.13;;;6.63;;
42840;SDS011;28491;46.898;7.660;2022-11-14T15:54:29;8.07;;;5.60;;
42840;SDS011;28491;46.898;7.660;2022-11-14T15:56:59;7.90;;;5.40;;
42840;SDS011;28491;46.898;7.660;2022-11-14T15:59:30;11.98;;;6.60;;
42840;SDS011;28491;46.898;7.660;2022-11-14T16:01:59;22.33;;;12.00;;
42840;SDS011;28491;46.898;7.660;2022-11-14T16:04:34;13.15;;;9.15;;
42840;SDS011;28491;46.898;7.660;2022-11-14T16:07:01;17.98;;;11.50;;
42840;SDS011;28491;46.898;7.660;2022-11-14T16:09:27;22.02;;;11.52;;
42840;SDS011;28491;46.898;7.660;2022-11-14T16:11:52;18.70;;;12.55;;
42840;SDS011;28491;46.898;7.660;2022-11-14T16:14:18;19.02;;;12.05;;
42840;SDS011;28491;46.898;7.660;2022-11-14T16:16:44;15.02;;;10.30;;
42840;SDS011;28491;46.898;7.660;2022-11-14T16:19:11;19.20;;;12.32;;
42840;SDS011;28491;46.898;7.660;2022-11-14T16:21:38;27.23;;;15.95;;
42840;SDS011;28491;46.898;7.660;2022-11-14T16:24:04;31.92;;;18.40;;
42840;SDS011;28491;46.898;7.660;2022-11-14T16:26:30;18.23;;;12.82;;
42840;SDS011;28491;46.898;7.660;2022-11-14T16:28:56;22.02;;;14.00;;
42840;SDS011;28491;46.898;7.660;2022-11-14T16:31:22;14.05;;;11.27;;
42840;SDS011;28491;46.898;7.660;2022-11-14T16:33:48;13.38;;;11.05;;
42840;SDS011;28491;46.898;7.660;2022-11-14T16:36:13;17.65;;;11.88;;
42840;SDS011;28491;46.898;7.660;2022-11-14T16:38:39;31.50;;;22.33;;
42840;SDS011;28491;46.898;7.660;2022-11-14T16:41:07;20.48;;;12.55;;
42840;SDS011;28491;46.898;7.660;2022-11-14T16:43:36;15.73;;;10.60;;
42840;SDS011;28491;46.898;7.660;2022-11-14T16:46:05;17.08;;;11.23;;
42840;SDS011;28491;46.898;7.660;2022-11-14T16:48:31;20.13;;;12.38;;
42840;SDS011;28491;46.898;7.660;2022-11-14T16:51:00;20.77;;;16.00;;